sensor_id;sensor_type;location;lat;lon;timestamp;temperature;humidity
5334;DHT22;2689;50.954;7.116;2022-10-24T00:00:29;15.60;99.90
5334;DHT22;2689;50.954;7.116;2022-10-24T00:02:57;15.60;99.90
5334;DHT22;2689;50.954;7.116;2022-10-24T00:05:24;15.60;99.90
5334;DHT22;2689;50.954;7.116;2022-10-24T00:07:51;15.60;99.90
5334;DHT22;2689;50.954;7.116;2022-10-24T00:10:19;15.60;99.90
5334;DHT22;2689;50.954;7.116;2022-10-24T00:12:46;15.60;99.90
5334;DHT22;2689;50.954;7.116;2022-10-24T00:15:13;15.60;99.90
5334;DHT22;2689;50.954;7.116;2022-10-24T00:17:40;15.60;99.90
5334;DHT22;2689;50.954;7.116;2022-10-24T00:20:10;15.60;99.90
5334;DHT22;2689;50.954;7.116;2022-10-24T00:22:37;15.60;99.90
5334;DHT22;2689;50.954;7.116;2022-10-24T00:25:05;15.60;99.90
5334;DHT22;2689;50.954;7.116;2022-10-24T00:27:33;15.60;99.90
5334;DHT22;2689;50.954;7.116;2022-10-24T00:30:01;15.70;99.90
5334;DHT22;2689;50.954;7.116;2022-10-24T00:32:28;15.70;99.90
5334;DHT22;2689;50.954;7.116;2022-10-24T00:34:55;15.80;99.90
5334;DHT22;2689;50.954;7.116;2022-10-24T00:37:23;15.80;99.90
5334;DHT22;2689;50.954;7.116;2022-10-24T00:39:50;15.80;99.90
5334;DHT22;2689;50.954;7.116;2022-10-24T00:42:17;15.90;99.90
5334;DHT22;2689;50.954;7.116;2022-10-24T00:44:45;16.00;99.90
5334;DHT22;2689;50.954;7.116;2022-10-24T00:47:15;16.00;99.90
5334;DHT22;2689;50.954;7.116;2022-10-24T00:49:46;15.90;99.90
5334;DHT22;2689;50.954;7.116;2022-10-24T00:52:16;16.00;99.90
5334;DHT22;2689;50.954;7.116;2022-10-24T00:54:45;16.00;99.90
5334;DHT22;2689;50.954;7.116;2022-10-24T00:57:15;16.00;99.90
5334;DHT22;2689;50.954;7.116;2022-10-24T00:59:52;16.00;99.90
5334;DHT22;2689;50.954;7.116;2022-10-24T01:02:19;16.00;99.90
5334;DHT22;2689;50.954;7.116;2022-10-24T01:04:46;16.10;99.90
5334;DHT22;2689;50.954;7.116;2022-10-24T01:07:22;16.20;99.90
5334;DHT22;2689;50.954;7.116;2022-10-24T01:10:06;16.20;99.90
5334;DHT22;2689;50.954;7.116;2022-10-24T01:12:41;16.20;99.90
5334;DHT22;2689;50.954;7.116;2022-10-24T01:15:16;16.20;99.90
5334;DHT22;2689;50.954;7.116;2022-10-24T01:17:51;16.20;99.90
5334;DHT22;2689;50.954;7.116;2022-10-24T01:20:51;16.20;99.90
5334;DHT22;2689;50.954;7.116;2022-10-24T01:23:35;16.20;99.90
5334;DHT22;2689;50.954;7.116;2022-10-24T01:26:26;16.20;99.90
5334;DHT22;2689;50.954;7.116;2022-10-24T01:29:04;16.20;99.90
5334;DHT22;2689;50.954;7.116;2022-10-24T01:31:39;16.20;99.90
5334;DHT22;2689;50.954;7.116;2022-10-24T01:34:14;16.20;99.90
5334;DHT22;2689;50.954;7.116;2022-10-24T01:36:46;16.20;99.90
5334;DHT22;2689;50.954;7.116;2022-10-24T01:39:17;16.10;99.90
5334;DHT22;2689;50.954;7.116;2022-10-24T01:41:46;16.10;99.90
5334;DHT22;2689;50.954;7.116;2022-10-24T01:44:17;16.10;99.90
5334;DHT22;2689;50.954;7.116;2022-10-24T01:46:51;16.00;99.90
5334;DHT22;2689;50.954;7.116;2022-10-24T01:49:31;16.00;99.90
5334;DHT22;2689;50.954;7.116;2022-10-24T01:52:02;15.90;99.90
5334;DHT22;2689;50.954;7.116;2022-10-24T01:54:30;16.00;99.90
5334;DHT22;2689;50.954;7.116;2022-10-24T01:56:57;16.00;99.90
5334;DHT22;2689;50.954;7.116;2022-10-24T01:59:42;16.00;99.90
5334;DHT22;2689;50.954;7.116;2022-10-24T02:02:14;16.10;99.90
5334;DHT22;2689;50.954;7.116;2022-10-24T02:04:44;16.10;99.90
5334;DHT22;2689;50.954;7.116;2022-10-24T02:07:13;16.00;99.90
5334;DHT22;2689;50.954;7.116;2022-10-24T02:09:43;16.00;99.90
5334;DHT22;2689;50.954;7.116;2022-10-24T02:12:13;16.00;99.90
5334;DHT22;2689;50.954;7.116;2022-10-24T02:14:45;16.00;99.90
5334;DHT22;2689;50.954;7.116;2022-10-24T02:17:15;16.10;99.90
5334;DHT22;2689;50.954;7.116;2022-10-24T02:19:43;16.00;99.90
5334;DHT22;2689;50.954;7.116;2022-10-24T02:22:18;16.00;99.90
5334;DHT22;2689;50.954;7.116;2022-10-24T02:24:49;16.00;99.90
5334;DHT22;2689;50.954;7.116;2022-10-24T02:27:20;16.00;99.90
5334;DHT22;2689;50.954;7.116;2022-10-24T02:29:51;16.00;99.90
5334;DHT22;2689;50.954;7.116;2022-10-24T02:32:26;16.00;99.90
5334;DHT22;2689;50.954;7.116;2022-10-24T02:34:53;16.00;99.90
5334;DHT22;2689;50.954;7.116;2022-10-24T02:37:22;16.00;99.90
5334;DHT22;2689;50.954;7.116;2022-10-24T02:39:51;16.00;99.90
5334;DHT22;2689;50.954;7.116;2022-10-24T02:42:22;16.00;99.90
5334;DHT22;2689;50.954;7.116;2022-10-24T02:44:50;16.10;99.90
5334;DHT22;2689;50.954;7.116;2022-10-24T02:47:18;16.10;99.90
5334;DHT22;2689;50.954;7.116;2022-10-24T02:49:48;16.10;99.90
5334;DHT22;2689;50.954;7.116;2022-10-24T02:52:15;16.10;99.90
5334;DHT22;2689;50.954;7.116;2022-10-24T02:54:42;16.00;99.90
5334;DHT22;2689;50.954;7.116;2022-10-24T02:57:09;16.10;99.90
5334;DHT22;2689;50.954;7.116;2022-10-24T02:59:38;16.10;99.90
5334;DHT22;2689;50.954;7.116;2022-10-24T03:02:05;16.10;99.90
5334;DHT22;2689;50.954;7.116;2022-10-24T03:04:31;16.10;99.90
5334;DHT22;2689;50.954;7.116;2022-10-24T03:07:00;16.10;99.90
5334;DHT22;2689;50.954;7.116;2022-10-24T03:09:26;16.20;99.90
5334;DHT22;2689;50.954;7.116;2022-10-24T03:11:53;16.20;99.90
5334;DHT22;2689;50.954;7.116;2022-10-24T03:14:20;16.20;99.90
5334;DHT22;2689;50.954;7.116;2022-10-24T03:16:47;16.20;99.90
5334;DHT22;2689;50.954;7.116;2022-10-24T03:19:13;16.20;99.90
5334;DHT22;2689;50.954;7.116;2022-10-24T03:21:40;16.20;99.90
5334;DHT22;2689;50.954;7.116;2022-10-24T03:24:08;16.20;99.90
5334;DHT22;2689;50.954;7.116;2022-10-24T03:26:35;16.20;99.90
5334;DHT22;2689;50.954;7.116;2022-10-24T03:29:02;16.20;99.90
5334;DHT22;2689;50.954;7.116;2022-10-24T03:31:30;16.20;99.90
5334;DHT22;2689;50.954;7.116;2022-10-24T03:33:57;16.20;99.90
5334;DHT22;2689;50.954;7.116;2022-10-24T03:36:24;16.20;99.90
5334;DHT22;2689;50.954;7.116;2022-10-24T03:38:51;16.20;99.90
5334;DHT22;2689;50.954;7.116;2022-10-24T03:41:19;16.20;99.90
5334;DHT22;2689;50.954;7.116;2022-10-24T03:43:46;16.20;99.90
5334;DHT22;2689;50.954;7.116;2022-10-24T03:46:13;16.20;99.90
5334;DHT22;2689;50.954;7.116;2022-10-24T03:48:40;16.20;99.90
5334;DHT22;2689;50.954;7.116;2022-10-24T03:51:07;16.20;99.90
5334;DHT22;2689;50.954;7.116;2022-10-24T03:53:33;16.20;99.90
5334;DHT22;2689;50.954;7.116;2022-10-24T03:56:00;16.20;99.90
5334;DHT22;2689;50.954;7.116;2022-10-24T03:58:28;16.20;99.90
5334;DHT22;2689;50.954;7.116;2022-10-24T04:00:55;16.20;99.90
5334;DHT22;2689;50.954;7.116;2022-10-24T04:03:23;16.20;99.90
5334;DHT22;2689;50.954;7.116;2022-10-24T04:05:50;16.20;99.90
5334;DHT22;2689;50.954;7.116;2022-10-24T04:08:17;16.10;99.90
5334;DHT22;2689;50.954;7.116;2022-10-24T04:10:44;16.10;99.90
5334;DHT22;2689;50.954;7.116;2022-10-24T04:13:11;16.00;99.90
5334;DHT22;2689;50.954;7.116;2022-10-24T04:15:40;16.00;99.90
5334;DHT22;2689;50.954;7.116;2022-10-24T04:18:07;16.00;99.90
5334;DHT22;2689;50.954;7.116;2022-10-24T04:20:34;16.00;99.90
5334;DHT22;2689;50.954;7.116;2022-10-24T04:23:01;16.10;99.90
5334;DHT22;2689;50.954;7.116;2022-10-24T04:25:28;16.10;99.90
5334;DHT22;2689;50.954;7.116;2022-10-24T04:27:54;16.10;99.90
5334;DHT22;2689;50.954;7.116;2022-10-24T04:30:21;16.10;99.90
5334;DHT22;2689;50.954;7.116;2022-10-24T04:32:49;16.20;99.90
5334;DHT22;2689;50.954;7.116;2022-10-24T04:35:16;16.10;99.90
5334;DHT22;2689;50.954;7.116;2022-10-24T04:37:43;16.10;99.90
5334;DHT22;2689;50.954;7.116;2022-10-24T04:40:10;16.10;99.90
5334;DHT22;2689;50.954;7.116;2022-10-24T04:42:37;16.10;99.90
5334;DHT22;2689;50.954;7.116;2022-10-24T04:45:05;16.10;99.90
5334;DHT22;2689;50.954;7.116;2022-10-24T04:47:32;16.10;99.90
5334;DHT22;2689;50.954;7.116;2022-10-24T04:50:00;16.10;99.90
5334;DHT22;2689;50.954;7.116;2022-10-24T04:52:27;16.10;99.90
5334;DHT22;2689;50.954;7.116;2022-10-24T04:54:54;16.10;99.90
5334;DHT22;2689;50.954;7.116;2022-10-24T04:57:21;16.10;99.90
5334;DHT22;2689;50.954;7.116;2022-10-24T04:59:48;16.10;99.90
5334;DHT22;2689;50.954;7.116;2022-10-24T05:02:17;16.20;99.90
5334;DHT22;2689;50.954;7.116;2022-10-24T05:04:43;16.20;99.90
5334;DHT22;2689;50.954;7.116;2022-10-24T05:07:12;16.20;99.90
5334;DHT22;2689;50.954;7.116;2022-10-24T05:09:38;16.20;99.90
5334;DHT22;2689;50.954;7.116;2022-10-24T05:12:05;16.30;99.90
5334;DHT22;2689;50.954;7.116;2022-10-24T05:14:32;16.30;99.90
5334;DHT22;2689;50.954;7.116;2022-10-24T05:17:00;16.30;99.90
5334;DHT22;2689;50.954;7.116;2022-10-24T05:19:27;16.30;99.90
5334;DHT22;2689;50.954;7.116;2022-10-24T05:21:54;16.30;99.90
5334;DHT22;2689;50.954;7.116;2022-10-24T05:24:23;16.20;99.90
5334;DHT22;2689;50.954;7.116;2022-10-24T05:26:50;16.20;99.90
5334;DHT22;2689;50.954;7.116;2022-10-24T05:29:17;16.20;99.90
5334;DHT22;2689;50.954;7.116;2022-10-24T05:31:43;16.20;99.90
5334;DHT22;2689;50.954;7.116;2022-10-24T05:34:10;16.20;99.90
5334;DHT22;2689;50.954;7.116;2022-10-24T05:36:37;16.20;99.90
5334;DHT22;2689;50.954;7.116;2022-10-24T05:39:04;16.10;99.90
5334;DHT22;2689;50.954;7.116;2022-10-24T05:41:32;16.10;99.90
5334;DHT22;2689;50.954;7.116;2022-10-24T05:44:02;16.10;99.90
5334;DHT22;2689;50.954;7.116;2022-10-24T05:46:35;16.10;99.90
5334;DHT22;2689;50.954;7.116;2022-10-24T05:49:03;16.10;99.90
5334;DHT22;2689;50.954;7.116;2022-10-24T05:51:30;16.00;99.90
5334;DHT22;2689;50.954;7.116;2022-10-24T05:53:57;16.10;99.90
5334;DHT22;2689;50.954;7.116;2022-10-24T05:56:24;16.10;99.90
5334;DHT22;2689;50.954;7.116;2022-10-24T05:58:55;16.10;99.90
5334;DHT22;2689;50.954;7.116;2022-10-24T06:01:22;16.10;99.90
5334;DHT22;2689;50.954;7.116;2022-10-24T06:03:49;16.00;99.90
5334;DHT22;2689;50.954;7.116;2022-10-24T06:06:16;16.00;99.90
5334;DHT22;2689;50.954;7.116;2022-10-24T06:08:43;16.00;99.90
5334;DHT22;2689;50.954;7.116;2022-10-24T06:11:10;16.10;99.90
5334;DHT22;2689;50.954;7.116;2022-10-24T06:13:37;16.10;99.90
5334;DHT22;2689;50.954;7.116;2022-10-24T06:16:07;16.10;99.90
5334;DHT22;2689;50.954;7.116;2022-10-24T06:18:36;16.10;99.90
5334;DHT22;2689;50.954;7.116;2022-10-24T06:21:06;16.10;99.90
5334;DHT22;2689;50.954;7.116;2022-10-24T06:23:33;16.10;99.90
5334;DHT22;2689;50.954;7.116;2022-10-24T06:26:05;16.10;99.90
5334;DHT22;2689;50.954;7.116;2022-10-24T06:28:33;16.20;99.90
5334;DHT22;2689;50.954;7.116;2022-10-24T06:31:00;16.20;99.90
5334;DHT22;2689;50.954;7.116;2022-10-24T06:33:29;16.20;99.90
5334;DHT22;2689;50.954;7.116;2022-10-24T06:35:58;16.20;99.90
5334;DHT22;2689;50.954;7.116;2022-10-24T06:38:29;16.20;99.90
5334;DHT22;2689;50.954;7.116;2022-10-24T06:40:56;16.20;99.90
5334;DHT22;2689;50.954;7.116;2022-10-24T06:43:24;16.20;99.90
5334;DHT22;2689;50.954;7.116;2022-10-24T06:45:51;16.20;99.90
5334;DHT22;2689;50.954;7.116;2022-10-24T06:48:19;16.20;99.90
5334;DHT22;2689;50.954;7.116;2022-10-24T06:50:48;16.20;99.90
5334;DHT22;2689;50.954;7.116;2022-10-24T06:53:15;16.20;99.90
5334;DHT22;2689;50.954;7.116;2022-10-24T06:55:42;16.30;99.90
5334;DHT22;2689;50.954;7.116;2022-10-24T06:58:09;16.30;99.90
5334;DHT22;2689;50.954;7.116;2022-10-24T07:00:36;16.30;99.90
5334;DHT22;2689;50.954;7.116;2022-10-24T07:03:03;16.30;99.90
5334;DHT22;2689;50.954;7.116;2022-10-24T07:05:30;16.40;99.90
5334;DHT22;2689;50.954;7.116;2022-10-24T07:07:59;16.40;99.90
5334;DHT22;2689;50.954;7.116;2022-10-24T07:10:51;16.40;99.90
5334;DHT22;2689;50.954;7.116;2022-10-24T07:13:18;16.50;99.90
5334;DHT22;2689;50.954;7.116;2022-10-24T07:15:46;16.50;99.90
5334;DHT22;2689;50.954;7.116;2022-10-24T07:18:18;16.60;99.90
5334;DHT22;2689;50.954;7.116;2022-10-24T07:20:46;16.60;99.90
5334;DHT22;2689;50.954;7.116;2022-10-24T07:23:14;16.60;99.90
5334;DHT22;2689;50.954;7.116;2022-10-24T07:25:41;16.70;99.90
5334;DHT22;2689;50.954;7.116;2022-10-24T07:28:09;16.70;99.90
5334;DHT22;2689;50.954;7.116;2022-10-24T07:30:37;16.60;99.90
5334;DHT22;2689;50.954;7.116;2022-10-24T07:33:05;16.70;99.90
5334;DHT22;2689;50.954;7.116;2022-10-24T07:35:32;16.70;99.90
5334;DHT22;2689;50.954;7.116;2022-10-24T07:37:59;16.70;99.90
5334;DHT22;2689;50.954;7.116;2022-10-24T07:40:27;16.70;99.90
5334;DHT22;2689;50.954;7.116;2022-10-24T07:42:54;16.80;99.90
5334;DHT22;2689;50.954;7.116;2022-10-24T07:45:21;16.80;99.90
5334;DHT22;2689;50.954;7.116;2022-10-24T07:47:47;16.80;99.90
5334;DHT22;2689;50.954;7.116;2022-10-24T07:50:14;16.90;99.90
5334;DHT22;2689;50.954;7.116;2022-10-24T07:52:42;17.00;99.90
5334;DHT22;2689;50.954;7.116;2022-10-24T07:55:09;17.10;99.90
5334;DHT22;2689;50.954;7.116;2022-10-24T07:57:37;17.20;99.90
5334;DHT22;2689;50.954;7.116;2022-10-24T08:00:05;17.40;99.90
5334;DHT22;2689;50.954;7.116;2022-10-24T08:02:40;17.60;99.90
5334;DHT22;2689;50.954;7.116;2022-10-24T08:05:21;17.80;99.90
5334;DHT22;2689;50.954;7.116;2022-10-24T08:07:56;17.80;99.90
5334;DHT22;2689;50.954;7.116;2022-10-24T08:10:23;17.70;99.90
5334;DHT22;2689;50.954;7.116;2022-10-24T08:13:02;17.70;99.90
5334;DHT22;2689;50.954;7.116;2022-10-24T08:15:32;17.70;99.90
5334;DHT22;2689;50.954;7.116;2022-10-24T08:17:59;17.70;99.90
5334;DHT22;2689;50.954;7.116;2022-10-24T08:20:25;17.80;99.90
5334;DHT22;2689;50.954;7.116;2022-10-24T08:22:52;18.10;99.90
5334;DHT22;2689;50.954;7.116;2022-10-24T08:25:19;18.60;99.90
5334;DHT22;2689;50.954;7.116;2022-10-24T08:27:46;19.10;99.90
5334;DHT22;2689;50.954;7.116;2022-10-24T08:30:15;19.50;99.30
5334;DHT22;2689;50.954;7.116;2022-10-24T08:32:45;19.70;98.40
5334;DHT22;2689;50.954;7.116;2022-10-24T08:35:15;19.90;98.40
5334;DHT22;2689;50.954;7.116;2022-10-24T08:37:42;20.30;97.70
5334;DHT22;2689;50.954;7.116;2022-10-24T08:47:54;21.40;92.50
5334;DHT22;2689;50.954;7.116;2022-10-24T08:50:26;21.10;92.60
5334;DHT22;2689;50.954;7.116;2022-10-24T08:52:58;20.90;93.40
5334;DHT22;2689;50.954;7.116;2022-10-24T08:55:30;21.10;93.60
5334;DHT22;2689;50.954;7.116;2022-10-24T08:58:00;21.40;91.90
5334;DHT22;2689;50.954;7.116;2022-10-24T09:20:20;23.40;88.00
5334;DHT22;2689;50.954;7.116;2022-10-24T09:22:47;23.80;85.00
5334;DHT22;2689;50.954;7.116;2022-10-24T09:25:16;24.30;83.70
5334;DHT22;2689;50.954;7.116;2022-10-24T09:27:51;24.90;81.00
5334;DHT22;2689;50.954;7.116;2022-10-24T09:30:21;26.20;76.90
5334;DHT22;2689;50.954;7.116;2022-10-24T09:32:49;27.30;72.60
5334;DHT22;2689;50.954;7.116;2022-10-24T09:35:20;27.80;66.50
5334;DHT22;2689;50.954;7.116;2022-10-24T09:37:49;27.30;66.20
5334;DHT22;2689;50.954;7.116;2022-10-24T09:40:19;26.70;66.00
5334;DHT22;2689;50.954;7.116;2022-10-24T09:42:50;25.80;69.60
5334;DHT22;2689;50.954;7.116;2022-10-24T09:45:36;24.90;71.40
5334;DHT22;2689;50.954;7.116;2022-10-24T09:48:06;24.10;73.40
5334;DHT22;2689;50.954;7.116;2022-10-24T09:50:44;23.20;75.60
5334;DHT22;2689;50.954;7.116;2022-10-24T09:53:25;22.40;78.50
5334;DHT22;2689;50.954;7.116;2022-10-24T09:55:54;21.90;80.50
5334;DHT22;2689;50.954;7.116;2022-10-24T09:58:26;21.50;82.50
5334;DHT22;2689;50.954;7.116;2022-10-24T10:01:00;21.10;85.00
5334;DHT22;2689;50.954;7.116;2022-10-24T10:03:27;20.80;85.40
5334;DHT22;2689;50.954;7.116;2022-10-24T10:05:59;20.60;87.90
5334;DHT22;2689;50.954;7.116;2022-10-24T10:08:30;20.40;87.90
5334;DHT22;2689;50.954;7.116;2022-10-24T10:11:03;20.30;90.00
5334;DHT22;2689;50.954;7.116;2022-10-24T10:13:34;20.20;90.50
5334;DHT22;2689;50.954;7.116;2022-10-24T10:16:05;20.10;90.50
5334;DHT22;2689;50.954;7.116;2022-10-24T10:18:42;19.90;90.10
5334;DHT22;2689;50.954;7.116;2022-10-24T10:21:15;19.80;89.80
5334;DHT22;2689;50.954;7.116;2022-10-24T10:23:44;19.70;90.00
5334;DHT22;2689;50.954;7.116;2022-10-24T10:26:23;19.60;90.00
5334;DHT22;2689;50.954;7.116;2022-10-24T10:29:00;19.50;90.70
5334;DHT22;2689;50.954;7.116;2022-10-24T10:31:39;19.60;90.50
5334;DHT22;2689;50.954;7.116;2022-10-24T10:34:24;19.60;90.50
5334;DHT22;2689;50.954;7.116;2022-10-24T10:37:22;19.80;90.90
5334;DHT22;2689;50.954;7.116;2022-10-24T10:40:13;19.80;90.90
5334;DHT22;2689;50.954;7.116;2022-10-24T10:42:52;19.80;91.00
5334;DHT22;2689;50.954;7.116;2022-10-24T10:45:34;19.70;91.40
5334;DHT22;2689;50.954;7.116;2022-10-24T10:48:22;19.70;91.50
5334;DHT22;2689;50.954;7.116;2022-10-24T10:50:54;19.60;91.50
5334;DHT22;2689;50.954;7.116;2022-10-24T10:53:36;19.60;92.10
5334;DHT22;2689;50.954;7.116;2022-10-24T10:56:13;19.60;92.00
5334;DHT22;2689;50.954;7.116;2022-10-24T10:58:51;19.50;91.10
5334;DHT22;2689;50.954;7.116;2022-10-24T11:01:26;19.40;91.00
5334;DHT22;2689;50.954;7.116;2022-10-24T11:04:01;19.40;90.70
5334;DHT22;2689;50.954;7.116;2022-10-24T11:06:40;19.40;90.50
5334;DHT22;2689;50.954;7.116;2022-10-24T11:09:25;19.50;90.50
5334;DHT22;2689;50.954;7.116;2022-10-24T11:12:00;19.60;90.30
5334;DHT22;2689;50.954;7.116;2022-10-24T11:14:32;19.60;90.00
5334;DHT22;2689;50.954;7.116;2022-10-24T11:17:06;19.60;90.40
5334;DHT22;2689;50.954;7.116;2022-10-24T11:19:40;19.60;89.90
5334;DHT22;2689;50.954;7.116;2022-10-24T11:22:15;19.60;89.50
5334;DHT22;2689;50.954;7.116;2022-10-24T11:24:52;19.50;90.20
5334;DHT22;2689;50.954;7.116;2022-10-24T11:27:23;19.50;90.50
5334;DHT22;2689;50.954;7.116;2022-10-24T11:29:56;19.50;90.50
5334;DHT22;2689;50.954;7.116;2022-10-24T11:32:28;19.40;90.60
5334;DHT22;2689;50.954;7.116;2022-10-24T11:35:02;19.40;90.80
5334;DHT22;2689;50.954;7.116;2022-10-24T11:37:33;19.40;90.90
5334;DHT22;2689;50.954;7.116;2022-10-24T11:40:08;19.30;91.00
5334;DHT22;2689;50.954;7.116;2022-10-24T11:42:40;19.30;91.10
5334;DHT22;2689;50.954;7.116;2022-10-24T11:45:12;19.30;91.70
5334;DHT22;2689;50.954;7.116;2022-10-24T11:50:27;19.30;91.70
5334;DHT22;2689;50.954;7.116;2022-10-24T11:53:03;19.30;91.90
5334;DHT22;2689;50.954;7.116;2022-10-24T11:55:36;19.30;92.20
5334;DHT22;2689;50.954;7.116;2022-10-24T11:58:07;19.20;91.60
5334;DHT22;2689;50.954;7.116;2022-10-24T12:00:52;19.20;91.90
5334;DHT22;2689;50.954;7.116;2022-10-24T12:06:59;19.30;92.70
5334;DHT22;2689;50.954;7.116;2022-10-24T12:09:44;19.30;93.00
5334;DHT22;2689;50.954;7.116;2022-10-24T12:12:40;19.40;92.40
5334;DHT22;2689;50.954;7.116;2022-10-24T12:15:21;19.40;92.90
5334;DHT22;2689;50.954;7.116;2022-10-24T12:18:04;19.40;92.70
5334;DHT22;2689;50.954;7.116;2022-10-24T12:20:33;19.50;93.10
5334;DHT22;2689;50.954;7.116;2022-10-24T12:23:01;19.50;92.60
5334;DHT22;2689;50.954;7.116;2022-10-24T12:25:31;19.50;92.70
5334;DHT22;2689;50.954;7.116;2022-10-24T12:28:03;19.40;93.00
5334;DHT22;2689;50.954;7.116;2022-10-24T12:30:33;19.30;93.40
5334;DHT22;2689;50.954;7.116;2022-10-24T12:33:09;19.30;93.50
5334;DHT22;2689;50.954;7.116;2022-10-24T12:35:50;19.20;94.50
5334;DHT22;2689;50.954;7.116;2022-10-24T12:41:42;19.10;94.30
5334;DHT22;2689;50.954;7.116;2022-10-24T12:47:37;19.00;95.60
5334;DHT22;2689;50.954;7.116;2022-10-24T12:53:18;18.70;96.60
5334;DHT22;2689;50.954;7.116;2022-10-24T12:56:13;18.60;97.50
5334;DHT22;2689;50.954;7.116;2022-10-24T12:58:41;18.50;98.70
5334;DHT22;2689;50.954;7.116;2022-10-24T13:01:11;18.60;99.10
5334;DHT22;2689;50.954;7.116;2022-10-24T13:04:42;18.60;98.70
5334;DHT22;2689;50.954;7.116;2022-10-24T13:07:38;18.60;99.90
5334;DHT22;2689;50.954;7.116;2022-10-24T13:10:25;18.60;99.90
5334;DHT22;2689;50.954;7.116;2022-10-24T13:16:18;18.60;99.90
5334;DHT22;2689;50.954;7.116;2022-10-24T13:19:07;18.60;98.00
5334;DHT22;2689;50.954;7.116;2022-10-24T13:21:44;18.60;97.50
5334;DHT22;2689;50.954;7.116;2022-10-24T13:27:29;18.60;96.40
5334;DHT22;2689;50.954;7.116;2022-10-24T13:33:30;18.70;95.90
5334;DHT22;2689;50.954;7.116;2022-10-24T13:36:10;18.70;96.10
5334;DHT22;2689;50.954;7.116;2022-10-24T13:38:43;18.70;96.10
5334;DHT22;2689;50.954;7.116;2022-10-24T13:41:18;18.70;95.90
5334;DHT22;2689;50.954;7.116;2022-10-24T13:43:47;18.70;95.10
5334;DHT22;2689;50.954;7.116;2022-10-24T13:46:24;18.70;95.20
5334;DHT22;2689;50.954;7.116;2022-10-24T13:48:52;18.70;95.50
5334;DHT22;2689;50.954;7.116;2022-10-24T13:51:23;18.70;95.30
5334;DHT22;2689;50.954;7.116;2022-10-24T13:53:56;18.70;95.30
5334;DHT22;2689;50.954;7.116;2022-10-24T13:56:25;18.80;95.10
5334;DHT22;2689;50.954;7.116;2022-10-24T13:58:52;18.70;95.10
5334;DHT22;2689;50.954;7.116;2022-10-24T14:01:22;18.70;95.10
5334;DHT22;2689;50.954;7.116;2022-10-24T14:03:52;18.70;95.20
5334;DHT22;2689;50.954;7.116;2022-10-24T14:06:23;18.70;95.50
5334;DHT22;2689;50.954;7.116;2022-10-24T14:08:55;18.70;95.50
5334;DHT22;2689;50.954;7.116;2022-10-24T14:11:25;18.70;95.40
5334;DHT22;2689;50.954;7.116;2022-10-24T14:13:55;18.80;95.90
5334;DHT22;2689;50.954;7.116;2022-10-24T14:16:25;18.80;96.40
5334;DHT22;2689;50.954;7.116;2022-10-24T14:19:11;18.80;96.10
5334;DHT22;2689;50.954;7.116;2022-10-24T14:21:40;18.80;96.40
5334;DHT22;2689;50.954;7.116;2022-10-24T14:24:13;18.80;96.50
5334;DHT22;2689;50.954;7.116;2022-10-24T14:26:48;18.80;96.70
5334;DHT22;2689;50.954;7.116;2022-10-24T14:29:28;18.70;97.10
5334;DHT22;2689;50.954;7.116;2022-10-24T14:32:00;18.70;97.30
5334;DHT22;2689;50.954;7.116;2022-10-24T14:34:34;18.70;96.90
5334;DHT22;2689;50.954;7.116;2022-10-24T14:37:04;18.60;96.70
5334;DHT22;2689;50.954;7.116;2022-10-24T14:39:33;18.60;97.10
5334;DHT22;2689;50.954;7.116;2022-10-24T14:42:01;18.60;97.30
5334;DHT22;2689;50.954;7.116;2022-10-24T14:44:28;18.70;96.90
5334;DHT22;2689;50.954;7.116;2022-10-24T14:47:04;18.60;97.30
5334;DHT22;2689;50.954;7.116;2022-10-24T14:49:35;18.70;96.80
5334;DHT22;2689;50.954;7.116;2022-10-24T14:52:09;18.70;96.30
5334;DHT22;2689;50.954;7.116;2022-10-24T14:54:42;18.70;96.80
5334;DHT22;2689;50.954;7.116;2022-10-24T14:57:16;18.70;96.90
5334;DHT22;2689;50.954;7.116;2022-10-24T14:59:45;18.70;96.70
5334;DHT22;2689;50.954;7.116;2022-10-24T15:02:19;18.80;96.70
5334;DHT22;2689;50.954;7.116;2022-10-24T15:04:48;18.80;96.20
5334;DHT22;2689;50.954;7.116;2022-10-24T15:07:27;18.80;96.20
5334;DHT22;2689;50.954;7.116;2022-10-24T15:09:58;18.70;96.30
5334;DHT22;2689;50.954;7.116;2022-10-24T15:12:30;18.60;96.80
5334;DHT22;2689;50.954;7.116;2022-10-24T15:15:19;18.60;96.50
5334;DHT22;2689;50.954;7.116;2022-10-24T15:17:46;18.60;96.80
5334;DHT22;2689;50.954;7.116;2022-10-24T15:20:18;18.50;96.50
5334;DHT22;2689;50.954;7.116;2022-10-24T15:22:50;18.50;96.60
5334;DHT22;2689;50.954;7.116;2022-10-24T15:25:25;18.50;96.80
5334;DHT22;2689;50.954;7.116;2022-10-24T15:27:56;18.40;97.10
5334;DHT22;2689;50.954;7.116;2022-10-24T15:30:27;18.40;97.60
5334;DHT22;2689;50.954;7.116;2022-10-24T15:32:55;18.50;97.60
5334;DHT22;2689;50.954;7.116;2022-10-24T15:35:23;18.60;98.00
5334;DHT22;2689;50.954;7.116;2022-10-24T15:37:55;18.60;97.70
5334;DHT22;2689;50.954;7.116;2022-10-24T15:40:25;18.50;97.60
5334;DHT22;2689;50.954;7.116;2022-10-24T15:42:53;18.50;97.60
5334;DHT22;2689;50.954;7.116;2022-10-24T15:45:20;18.40;97.90
5334;DHT22;2689;50.954;7.116;2022-10-24T15:47:49;18.30;98.20
5334;DHT22;2689;50.954;7.116;2022-10-24T15:50:18;18.30;98.20
5334;DHT22;2689;50.954;7.116;2022-10-24T15:52:50;18.20;98.40
5334;DHT22;2689;50.954;7.116;2022-10-24T15:55:20;18.10;98.90
5334;DHT22;2689;50.954;7.116;2022-10-24T15:57:49;18.00;99.20
5334;DHT22;2689;50.954;7.116;2022-10-24T16:00:19;17.90;99.40
5334;DHT22;2689;50.954;7.116;2022-10-24T16:02:48;17.90;99.30
5334;DHT22;2689;50.954;7.116;2022-10-24T16:05:16;17.80;99.30
5334;DHT22;2689;50.954;7.116;2022-10-24T16:07:44;17.80;99.50
5334;DHT22;2689;50.954;7.116;2022-10-24T16:10:12;17.80;99.60
5334;DHT22;2689;50.954;7.116;2022-10-24T16:12:40;17.80;99.40
5334;DHT22;2689;50.954;7.116;2022-10-24T16:15:17;17.70;99.70
5334;DHT22;2689;50.954;7.116;2022-10-24T16:17:44;17.80;99.60
5334;DHT22;2689;50.954;7.116;2022-10-24T16:20:11;17.80;99.50
5334;DHT22;2689;50.954;7.116;2022-10-24T16:22:39;17.80;99.40
5334;DHT22;2689;50.954;7.116;2022-10-24T16:25:07;17.70;99.50
5334;DHT22;2689;50.954;7.116;2022-10-24T16:27:34;17.70;99.40
5334;DHT22;2689;50.954;7.116;2022-10-24T16:30:00;17.70;99.50
5334;DHT22;2689;50.954;7.116;2022-10-24T16:32:29;17.60;99.40
5334;DHT22;2689;50.954;7.116;2022-10-24T16:34:56;17.60;99.40
5334;DHT22;2689;50.954;7.116;2022-10-24T16:37:23;17.60;99.10
5334;DHT22;2689;50.954;7.116;2022-10-24T16:39:49;17.60;99.50
5334;DHT22;2689;50.954;7.116;2022-10-24T16:42:16;17.60;99.30
5334;DHT22;2689;50.954;7.116;2022-10-24T16:44:44;17.50;99.50
5334;DHT22;2689;50.954;7.116;2022-10-24T16:47:11;17.40;99.70
5334;DHT22;2689;50.954;7.116;2022-10-24T16:49:39;17.40;99.90
5334;DHT22;2689;50.954;7.116;2022-10-24T16:52:06;17.40;99.90
5334;DHT22;2689;50.954;7.116;2022-10-24T16:54:33;17.40;99.90
5334;DHT22;2689;50.954;7.116;2022-10-24T16:56:59;17.30;99.90
5334;DHT22;2689;50.954;7.116;2022-10-24T16:59:26;17.30;99.90
5334;DHT22;2689;50.954;7.116;2022-10-24T17:01:53;17.30;99.90
5334;DHT22;2689;50.954;7.116;2022-10-24T17:04:20;17.30;99.90
5334;DHT22;2689;50.954;7.116;2022-10-24T17:06:48;17.30;99.90
5334;DHT22;2689;50.954;7.116;2022-10-24T17:09:15;17.30;99.90
5334;DHT22;2689;50.954;7.116;2022-10-24T17:11:41;17.30;99.90
5334;DHT22;2689;50.954;7.116;2022-10-24T17:14:08;17.30;99.90
5334;DHT22;2689;50.954;7.116;2022-10-24T17:16:38;17.30;99.90
5334;DHT22;2689;50.954;7.116;2022-10-24T17:19:05;17.30;99.90